sensor_id;sensor_type;location;lat;lon;timestamp;temperature;humidity
65478;SHT31;53678;39.642;22.430;2023-04-29T00:01:08;11.53;75.09
65478;SHT31;53678;39.642;22.430;2023-04-29T00:03:34;11.51;75.60
65478;SHT31;53678;39.642;22.430;2023-04-29T00:06:00;11.60;75.01
65478;SHT31;53678;39.642;22.430;2023-04-29T00:08:26;11.68;74.98
65478;SHT31;53678;39.642;22.430;2023-04-29T00:10:52;11.75;74.98
65478;SHT31;53678;39.642;22.430;2023-04-29T00:13:18;11.71;74.67
65478;SHT31;53678;39.642;22.430;2023-04-29T00:15:43;11.70;74.87
65478;SHT31;53678;39.642;22.430;2023-04-29T00:18:09;11.75;74.65
65478;SHT31;53678;39.642;22.430;2023-04-29T00:20:37;11.77;74.02
65478;SHT31;53678;39.642;22.430;2023-04-29T00:23:03;11.88;73.08
65478;SHT31;53678;39.642;22.430;2023-04-29T00:25:29;11.70;73.26
65478;SHT31;53678;39.642;22.430;2023-04-29T00:27:55;11.56;74.10
65478;SHT31;53678;39.642;22.430;2023-04-29T00:30:24;11.41;75.11
65478;SHT31;53678;39.642;22.430;2023-04-29T00:32:51;11.16;76.17
65478;SHT31;53678;39.642;22.430;2023-04-29T00:35:17;10.99;76.98
65478;SHT31;53678;39.642;22.430;2023-04-29T00:37:43;11.18;76.43
65478;SHT31;53678;39.642;22.430;2023-04-29T00:40:10;11.40;75.80
65478;SHT31;53678;39.642;22.430;2023-04-29T00:42:37;11.48;75.19
65478;SHT31;53678;39.642;22.430;2023-04-29T00:45:04;11.57;75.16
65478;SHT31;53678;39.642;22.430;2023-04-29T00:47:30;11.47;75.92
65478;SHT31;53678;39.642;22.430;2023-04-29T00:49:56;11.56;75.04
65478;SHT31;53678;39.642;22.430;2023-04-29T00:52:22;11.50;75.17
65478;SHT31;53678;39.642;22.430;2023-04-29T00:54:47;11.51;75.52
65478;SHT31;53678;39.642;22.430;2023-04-29T00:57:13;11.47;76.19
65478;SHT31;53678;39.642;22.430;2023-04-29T00:59:39;11.56;76.08
65478;SHT31;53678;39.642;22.430;2023-04-29T01:02:07;11.15;77.21
65478;SHT31;53678;39.642;22.430;2023-04-29T01:04:32;10.96;77.74
65478;SHT31;53678;39.642;22.430;2023-04-29T01:09:52;11.18;76.62
65478;SHT31;53678;39.642;22.430;2023-04-29T01:17:40;10.67;78.20
65478;SHT31;53678;39.642;22.430;2023-04-29T01:20:08;10.69;78.62
65478;SHT31;53678;39.642;22.430;2023-04-29T01:22:36;10.91;77.43
65478;SHT31;53678;39.642;22.430;2023-04-29T01:25:07;11.03;76.19
65478;SHT31;53678;39.642;22.430;2023-04-29T01:34:07;11.26;74.30
65478;SHT31;53678;39.642;22.430;2023-04-29T01:36:49;11.33;73.98
65478;SHT31;53678;39.642;22.430;2023-04-29T01:39:32;11.39;73.39
65478;SHT31;53678;39.642;22.430;2023-04-29T01:44:54;11.46;72.13
65478;SHT31;53678;39.642;22.430;2023-04-29T01:47:23;11.24;73.14
65478;SHT31;53678;39.642;22.430;2023-04-29T01:49:53;11.20;73.84
65478;SHT31;53678;39.642;22.430;2023-04-29T01:52:20;11.15;73.96
65478;SHT31;53678;39.642;22.430;2023-04-29T01:54:55;10.96;75.17
65478;SHT31;53678;39.642;22.430;2023-04-29T01:57:23;10.99;75.23
65478;SHT31;53678;39.642;22.430;2023-04-29T02:00:21;11.02;74.96
65478;SHT31;53678;39.642;22.430;2023-04-29T02:02:50;11.15;74.82
65478;SHT31;53678;39.642;22.430;2023-04-29T02:05:45;10.99;74.93
65478;SHT31;53678;39.642;22.430;2023-04-29T02:08:11;10.92;75.41
65478;SHT31;53678;39.642;22.430;2023-04-29T02:10:51;11.06;74.90
65478;SHT31;53678;39.642;22.430;2023-04-29T02:13:27;11.20;74.65
65478;SHT31;53678;39.642;22.430;2023-04-29T02:15:53;11.15;74.61
65478;SHT31;53678;39.642;22.430;2023-04-29T02:18:20;11.18;74.87
65478;SHT31;53678;39.642;22.430;2023-04-29T02:20:47;11.08;74.95
65478;SHT31;53678;39.642;22.430;2023-04-29T02:23:15;11.06;75.18
65478;SHT31;53678;39.642;22.430;2023-04-29T02:25:41;11.12;75.30
65478;SHT31;53678;39.642;22.430;2023-04-29T02:28:07;11.15;75.03
65478;SHT31;53678;39.642;22.430;2023-04-29T02:30:34;11.15;75.16
65478;SHT31;53678;39.642;22.430;2023-04-29T02:33:01;11.31;74.63
65478;SHT31;53678;39.642;22.430;2023-04-29T02:35:27;11.27;74.39
65478;SHT31;53678;39.642;22.430;2023-04-29T02:37:53;10.96;75.41
65478;SHT31;53678;39.642;22.430;2023-04-29T02:40:22;10.92;75.79
65478;SHT31;53678;39.642;22.430;2023-04-29T02:42:50;10.96;75.91
65478;SHT31;53678;39.642;22.430;2023-04-29T02:45:16;11.03;75.37
65478;SHT31;53678;39.642;22.430;2023-04-29T02:47:43;10.99;75.43
65478;SHT31;53678;39.642;22.430;2023-04-29T02:50:09;10.96;75.57
65478;SHT31;53678;39.642;22.430;2023-04-29T02:52:35;10.93;75.54
65478;SHT31;53678;39.642;22.430;2023-04-29T02:55:01;10.95;75.78
65478;SHT31;53678;39.642;22.430;2023-04-29T02:57:26;10.89;75.56
65478;SHT31;53678;39.642;22.430;2023-04-29T02:59:54;10.85;75.72
65478;SHT31;53678;39.642;22.430;2023-04-29T03:02:20;10.60;76.26
65478;SHT31;53678;39.642;22.430;2023-04-29T03:04:50;10.11;77.54
65478;SHT31;53678;39.642;22.430;2023-04-29T03:07:17;9.86;78.42
65478;SHT31;53678;39.642;22.430;2023-04-29T03:09:44;9.59;78.53
65478;SHT31;53678;39.642;22.430;2023-04-29T03:12:09;9.44;78.28
65478;SHT31;53678;39.642;22.430;2023-04-29T03:14:36;9.69;77.62
65478;SHT31;53678;39.642;22.430;2023-04-29T03:17:03;9.78;77.05
65478;SHT31;53678;39.642;22.430;2023-04-29T03:19:29;9.97;76.54
65478;SHT31;53678;39.642;22.430;2023-04-29T03:21:55;9.75;76.86
65478;SHT31;53678;39.642;22.430;2023-04-29T03:24:21;9.87;77.13
65478;SHT31;53678;39.642;22.430;2023-04-29T03:26:47;9.92;76.75
65478;SHT31;53678;39.642;22.430;2023-04-29T03:29:13;9.82;76.44
65478;SHT31;53678;39.642;22.430;2023-04-29T03:31:39;9.92;76.15
65478;SHT31;53678;39.642;22.430;2023-04-29T03:34:04;9.79;77.25
65478;SHT31;53678;39.642;22.430;2023-04-29T03:36:34;9.83;76.19
65478;SHT31;53678;39.642;22.430;2023-04-29T03:39:03;9.79;76.62
65478;SHT31;53678;39.642;22.430;2023-04-29T03:41:29;9.87;77.40
65478;SHT31;53678;39.642;22.430;2023-04-29T03:43:57;9.96;77.02
65478;SHT31;53678;39.642;22.430;2023-04-29T03:46:27;10.29;76.24
65478;SHT31;53678;39.642;22.430;2023-04-29T03:48:52;10.78;74.82
65478;SHT31;53678;39.642;22.430;2023-04-29T03:51:24;11.08;74.11
65478;SHT31;53678;39.642;22.430;2023-04-29T03:53:57;11.36;73.12
65478;SHT31;53678;39.642;22.430;2023-04-29T03:56:24;11.75;72.00
65478;SHT31;53678;39.642;22.430;2023-04-29T03:58:51;11.67;71.29
65478;SHT31;53678;39.642;22.430;2023-04-29T04:01:18;11.51;72.43
65478;SHT31;53678;39.642;22.430;2023-04-29T04:03:45;11.08;74.00
65478;SHT31;53678;39.642;22.430;2023-04-29T04:06:12;10.68;74.98
65478;SHT31;53678;39.642;22.430;2023-04-29T04:08:38;10.54;75.64
65478;SHT31;53678;39.642;22.430;2023-04-29T04:11:14;10.58;75.64
65478;SHT31;53678;39.642;22.430;2023-04-29T04:13:44;10.57;75.91
65478;SHT31;53678;39.642;22.430;2023-04-29T04:16:10;10.57;75.84
65478;SHT31;53678;39.642;22.430;2023-04-29T04:18:37;10.69;75.43
65478;SHT31;53678;39.642;22.430;2023-04-29T04:21:07;10.99;74.47
65478;SHT31;53678;39.642;22.430;2023-04-29T04:23:35;11.13;73.74
65478;SHT31;53678;39.642;22.430;2023-04-29T04:26:02;11.29;73.50
65478;SHT31;53678;39.642;22.430;2023-04-29T04:28:58;11.27;73.03
65478;SHT31;53678;39.642;22.430;2023-04-29T04:31:41;11.43;72.94
65478;SHT31;53678;39.642;22.430;2023-04-29T04:34:08;11.37;73.07
65478;SHT31;53678;39.642;22.430;2023-04-29T04:36:35;11.75;72.29
65478;SHT31;53678;39.642;22.430;2023-04-29T04:39:02;12.24;70.36
65478;SHT31;53678;39.642;22.430;2023-04-29T04:41:28;12.68;69.62
65478;SHT31;53678;39.642;22.430;2023-04-29T04:43:56;13.67;67.04
65478;SHT31;53678;39.642;22.430;2023-04-29T04:46:39;14.21;64.36
65478;SHT31;53678;39.642;22.430;2023-04-29T04:49:17;14.31;64.17
65478;SHT31;53678;39.642;22.430;2023-04-29T04:52:03;14.95;63.42
65478;SHT31;53678;39.642;22.430;2023-04-29T04:54:31;15.22;61.60
65478;SHT31;53678;39.642;22.430;2023-04-29T04:57:07;14.30;63.19
65478;SHT31;53678;39.642;22.430;2023-04-29T04:59:33;13.70;65.02
65478;SHT31;53678;39.642;22.430;2023-04-29T05:01:58;13.70;67.13
65478;SHT31;53678;39.642;22.430;2023-04-29T05:04:24;13.15;68.37
65478;SHT31;53678;39.642;22.430;2023-04-29T05:06:50;13.18;69.30
65478;SHT31;53678;39.642;22.430;2023-04-29T05:09:19;13.38;68.29
65478;SHT31;53678;39.642;22.430;2023-04-29T05:11:45;13.39;68.89
65478;SHT31;53678;39.642;22.430;2023-04-29T05:14:21;13.55;68.68
65478;SHT31;53678;39.642;22.430;2023-04-29T05:16:47;13.65;68.30
65478;SHT31;53678;39.642;22.430;2023-04-29T05:19:13;13.00;69.66
65478;SHT31;53678;39.642;22.430;2023-04-29T05:21:40;12.87;70.74
65478;SHT31;53678;39.642;22.430;2023-04-29T05:24:08;12.66;71.58
65478;SHT31;53678;39.642;22.430;2023-04-29T05:26:36;13.05;70.57
65478;SHT31;53678;39.642;22.430;2023-04-29T05:29:04;13.91;67.99
65478;SHT31;53678;39.642;22.430;2023-04-29T05:31:37;14.49;65.76
65478;SHT31;53678;39.642;22.430;2023-04-29T05:34:04;14.99;63.71
65478;SHT31;53678;39.642;22.430;2023-04-29T05:36:31;14.99;62.16
65478;SHT31;53678;39.642;22.430;2023-04-29T05:38:57;14.32;63.06
65478;SHT31;53678;39.642;22.430;2023-04-29T05:41:24;14.22;64.17
65478;SHT31;53678;39.642;22.430;2023-04-29T05:44:14;14.18;63.83
65478;SHT31;53678;39.642;22.430;2023-04-29T05:46:40;14.31;63.76
65478;SHT31;53678;39.642;22.430;2023-04-29T05:49:06;13.72;65.27
65478;SHT31;53678;39.642;22.430;2023-04-29T05:51:34;14.38;64.29
65478;SHT31;53678;39.642;22.430;2023-04-29T05:54:00;14.01;65.54
65478;SHT31;53678;39.642;22.430;2023-04-29T05:56:28;14.13;65.62
65478;SHT31;53678;39.642;22.430;2023-04-29T05:58:54;13.94;65.64
65478;SHT31;53678;39.642;22.430;2023-04-29T06:01:20;14.22;66.29
65478;SHT31;53678;39.642;22.430;2023-04-29T06:03:46;14.07;65.62
65478;SHT31;53678;39.642;22.430;2023-04-29T06:06:31;14.13;65.99
65478;SHT31;53678;39.642;22.430;2023-04-29T06:09:13;14.35;65.93
65478;SHT31;53678;39.642;22.430;2023-04-29T06:11:44;14.49;65.20
65478;SHT31;53678;39.642;22.430;2023-04-29T06:14:10;15.20;64.83
65478;SHT31;53678;39.642;22.430;2023-04-29T06:16:38;15.26;63.89
65478;SHT31;53678;39.642;22.430;2023-04-29T06:19:04;14.45;65.61
65478;SHT31;53678;39.642;22.430;2023-04-29T06:21:31;14.89;63.94
65478;SHT31;53678;39.642;22.430;2023-04-29T06:23:58;14.95;64.90
65478;SHT31;53678;39.642;22.430;2023-04-29T06:26:24;14.86;64.57
65478;SHT31;53678;39.642;22.430;2023-04-29T06:28:50;14.57;65.96
65478;SHT31;53678;39.642;22.430;2023-04-29T06:31:17;15.09;64.65
65478;SHT31;53678;39.642;22.430;2023-04-29T06:33:43;14.92;64.23
65478;SHT31;53678;39.642;22.430;2023-04-29T06:36:09;15.78;62.32
65478;SHT31;53678;39.642;22.430;2023-04-29T06:38:53;16.06;62.01
65478;SHT31;53678;39.642;22.430;2023-04-29T06:41:38;16.12;60.02
65478;SHT31;53678;39.642;22.430;2023-04-29T06:44:41;16.42;60.09
65478;SHT31;53678;39.642;22.430;2023-04-29T06:47:26;16.19;60.54
65478;SHT31;53678;39.642;22.430;2023-04-29T06:50:18;16.60;60.41
65478;SHT31;53678;39.642;22.430;2023-04-29T06:52:44;16.70;60.76
65478;SHT31;53678;39.642;22.430;2023-04-29T06:55:11;17.00;59.73
65478;SHT31;53678;39.642;22.430;2023-04-29T06:57:40;16.63;60.06
65478;SHT31;53678;39.642;22.430;2023-04-29T07:00:07;17.11;59.34
65478;SHT31;53678;39.642;22.430;2023-04-29T07:02:33;17.47;57.27
65478;SHT31;53678;39.642;22.430;2023-04-29T07:05:04;17.83;56.53
65478;SHT31;53678;39.642;22.430;2023-04-29T07:07:31;17.98;55.93
65478;SHT31;53678;39.642;22.430;2023-04-29T07:09:56;17.15;58.36
65478;SHT31;53678;39.642;22.430;2023-04-29T07:12:22;17.43;56.83
65478;SHT31;53678;39.642;22.430;2023-04-29T07:14:52;17.59;56.83
65478;SHT31;53678;39.642;22.430;2023-04-29T07:17:19;17.47;56.76
65478;SHT31;53678;39.642;22.430;2023-04-29T07:19:45;16.95;57.61
65478;SHT31;53678;39.642;22.430;2023-04-29T07:22:11;16.87;59.29
65478;SHT31;53678;39.642;22.430;2023-04-29T07:24:38;17.00;58.98
65478;SHT31;53678;39.642;22.430;2023-04-29T07:27:06;17.26;58.02
65478;SHT31;53678;39.642;22.430;2023-04-29T07:29:32;17.56;57.74
65478;SHT31;53678;39.642;22.430;2023-04-29T07:31:59;18.24;56.40
65478;SHT31;53678;39.642;22.430;2023-04-29T07:34:26;18.00;57.05
65478;SHT31;53678;39.642;22.430;2023-04-29T07:36:52;18.21;56.53
65478;SHT31;53678;39.642;22.430;2023-04-29T07:39:18;18.08;56.46
65478;SHT31;53678;39.642;22.430;2023-04-29T07:41:47;18.15;57.37
65478;SHT31;53678;39.642;22.430;2023-04-29T07:44:13;18.00;56.88
65478;SHT31;53678;39.642;22.430;2023-04-29T07:46:39;18.65;55.85
65478;SHT31;53678;39.642;22.430;2023-04-29T07:49:07;18.18;57.77
65478;SHT31;53678;39.642;22.430;2023-04-29T07:51:33;18.65;56.22
65478;SHT31;53678;39.642;22.430;2023-04-29T07:54:00;18.60;56.27
65478;SHT31;53678;39.642;22.430;2023-04-29T07:56:25;18.65;56.39
65478;SHT31;53678;39.642;22.430;2023-04-29T07:58:52;19.14;54.58
65478;SHT31;53678;39.642;22.430;2023-04-29T08:01:20;18.90;54.40
65478;SHT31;53678;39.642;22.430;2023-04-29T08:03:47;18.21;56.50
65478;SHT31;53678;39.642;22.430;2023-04-29T08:06:15;18.18;56.46
65478;SHT31;53678;39.642;22.430;2023-04-29T08:08:42;18.15;56.28
65478;SHT31;53678;39.642;22.430;2023-04-29T08:11:17;18.60;55.85
65478;SHT31;53678;39.642;22.430;2023-04-29T08:13:44;18.59;55.59
65478;SHT31;53678;39.642;22.430;2023-04-29T08:16:10;19.28;55.19
65478;SHT31;53678;39.642;22.430;2023-04-29T08:18:36;18.86;54.62
65478;SHT31;53678;39.642;22.430;2023-04-29T08:21:05;19.11;55.09
65478;SHT31;53678;39.642;22.430;2023-04-29T08:23:32;18.75;55.15
65478;SHT31;53678;39.642;22.430;2023-04-29T08:25:58;19.46;54.35
65478;SHT31;53678;39.642;22.430;2023-04-29T08:28:24;19.54;53.66
65478;SHT31;53678;39.642;22.430;2023-04-29T08:30:51;19.16;54.00
65478;SHT31;53678;39.642;22.430;2023-04-29T08:33:17;19.47;54.03
65478;SHT31;53678;39.642;22.430;2023-04-29T08:35:43;19.68;53.83
65478;SHT31;53678;39.642;22.430;2023-04-29T08:38:09;18.34;56.18
65478;SHT31;53678;39.642;22.430;2023-04-29T08:40:35;18.27;56.85
65478;SHT31;53678;39.642;22.430;2023-04-29T08:43:06;19.34;54.00
65478;SHT31;53678;39.642;22.430;2023-04-29T08:45:35;19.81;52.36
65478;SHT31;53678;39.642;22.430;2023-04-29T08:48:06;20.16;50.00
65478;SHT31;53678;39.642;22.430;2023-04-29T08:50:38;20.60;48.89
65478;SHT31;53678;39.642;22.430;2023-04-29T08:53:10;20.55;49.32
65478;SHT31;53678;39.642;22.430;2023-04-29T08:55:42;20.80;49.68
65478;SHT31;53678;39.642;22.430;2023-04-29T08:58:12;20.85;50.19
65478;SHT31;53678;39.642;22.430;2023-04-29T09:00:39;20.55;50.05
65478;SHT31;53678;39.642;22.430;2023-04-29T09:03:16;20.40;51.67
65478;SHT31;53678;39.642;22.430;2023-04-29T09:05:44;19.92;49.59
65478;SHT31;53678;39.642;22.430;2023-04-29T09:08:16;19.81;48.12
65478;SHT31;53678;39.642;22.430;2023-04-29T09:10:42;19.99;49.00
65478;SHT31;53678;39.642;22.430;2023-04-29T09:13:36;19.89;49.68
65478;SHT31;53678;39.642;22.430;2023-04-29T09:16:01;19.76;50.44
65478;SHT31;53678;39.642;22.430;2023-04-29T09:18:46;20.00;49.80
65478;SHT31;53678;39.642;22.430;2023-04-29T09:21:17;20.06;49.21
65478;SHT31;53678;39.642;22.430;2023-04-29T09:23:44;20.36;49.28
65478;SHT31;53678;39.642;22.430;2023-04-29T09:26:13;20.55;47.21
65478;SHT31;53678;39.642;22.430;2023-04-29T09:28:39;20.15;47.73
65478;SHT31;53678;39.642;22.430;2023-04-29T09:31:08;20.39;47.68
65478;SHT31;53678;39.642;22.430;2023-04-29T09:33:50;20.51;47.79
65478;SHT31;53678;39.642;22.430;2023-04-29T09:39:03;20.25;47.54
65478;SHT31;53678;39.642;22.430;2023-04-29T09:41:30;20.12;47.98
65478;SHT31;53678;39.642;22.430;2023-04-29T09:44:06;20.46;48.10
65478;SHT31;53678;39.642;22.430;2023-04-29T09:46:35;20.91;47.73
65478;SHT31;53678;39.642;22.430;2023-04-29T09:49:02;20.50;48.56
65478;SHT31;53678;39.642;22.430;2023-04-29T09:51:31;20.57;48.69
65478;SHT31;53678;39.642;22.430;2023-04-29T09:53:59;20.73;49.35
65478;SHT31;53678;39.642;22.430;2023-04-29T09:56:27;20.83;48.59
65478;SHT31;53678;39.642;22.430;2023-04-29T09:58:55;20.87;47.93
65478;SHT31;53678;39.642;22.430;2023-04-29T10:01:22;20.87;46.66
65478;SHT31;53678;39.642;22.430;2023-04-29T10:03:50;20.83;46.27
65478;SHT31;53678;39.642;22.430;2023-04-29T10:06:19;20.13;47.93
65478;SHT31;53678;39.642;22.430;2023-04-29T10:08:46;20.30;48.42
65478;SHT31;53678;39.642;22.430;2023-04-29T10:11:13;19.92;48.19
65478;SHT31;53678;39.642;22.430;2023-04-29T10:13:41;20.30;47.19
65478;SHT31;53678;39.642;22.430;2023-04-29T10:18:48;21.22;46.96
65478;SHT31;53678;39.642;22.430;2023-04-29T10:21:20;21.47;46.57
65478;SHT31;53678;39.642;22.430;2023-04-29T10:23:47;21.31;46.31
65478;SHT31;53678;39.642;22.430;2023-04-29T10:26:16;20.90;46.90
65478;SHT31;53678;39.642;22.430;2023-04-29T10:28:43;20.68;47.51
65478;SHT31;53678;39.642;22.430;2023-04-29T10:31:11;20.91;46.79
65478;SHT31;53678;39.642;22.430;2023-04-29T10:33:39;20.99;47.76
65478;SHT31;53678;39.642;22.430;2023-04-29T10:36:08;21.05;46.07
65478;SHT31;53678;39.642;22.430;2023-04-29T10:38:46;21.16;46.09
65478;SHT31;53678;39.642;22.430;2023-04-29T10:41:26;21.23;45.03
65478;SHT31;53678;39.642;22.430;2023-04-29T10:43:54;21.05;45.45
65478;SHT31;53678;39.642;22.430;2023-04-29T10:46:22;20.63;45.32
65478;SHT31;53678;39.642;22.430;2023-04-29T10:48:50;20.70;45.86
65478;SHT31;53678;39.642;22.430;2023-04-29T10:51:34;20.83;45.93
65478;SHT31;53678;39.642;22.430;2023-04-29T10:54:12;21.11;44.92
65478;SHT31;53678;39.642;22.430;2023-04-29T10:56:52;21.23;46.21
65478;SHT31;53678;39.642;22.430;2023-04-29T10:59:21;21.41;45.40
65478;SHT31;53678;39.642;22.430;2023-04-29T11:01:52;21.47;44.76
65478;SHT31;53678;39.642;22.430;2023-04-29T11:04:20;21.54;44.46
65478;SHT31;53678;39.642;22.430;2023-04-29T11:06:54;21.66;44.69
65478;SHT31;53678;39.642;22.430;2023-04-29T11:09:24;21.73;43.75
65478;SHT31;53678;39.642;22.430;2023-04-29T11:12:02;21.91;42.34
65478;SHT31;53678;39.642;22.430;2023-04-29T11:14:40;21.46;42.72
65478;SHT31;53678;39.642;22.430;2023-04-29T11:17:34;21.81;43.57
65478;SHT31;53678;39.642;22.430;2023-04-29T11:20:01;22.12;41.91
65478;SHT31;53678;39.642;22.430;2023-04-29T11:22:27;22.28;40.92
65478;SHT31;53678;39.642;22.430;2023-04-29T11:25:05;21.90;42.21
65478;SHT31;53678;39.642;22.430;2023-04-29T11:29:59;22.11;43.62
65478;SHT31;53678;39.642;22.430;2023-04-29T11:32:28;22.02;44.16
65478;SHT31;53678;39.642;22.430;2023-04-29T11:34:54;22.20;43.81
65478;SHT31;53678;39.642;22.430;2023-04-29T11:37:24;22.32;44.30
65478;SHT31;53678;39.642;22.430;2023-04-29T11:39:58;22.17;44.69
65478;SHT31;53678;39.642;22.430;2023-04-29T11:42:25;21.94;45.27
65478;SHT31;53678;39.642;22.430;2023-04-29T11:44:55;22.12;45.08
65478;SHT31;53678;39.642;22.430;2023-04-29T11:47:29;21.62;46.43
65478;SHT31;53678;39.642;22.430;2023-04-29T11:50:06;22.38;45.42
65478;SHT31;53678;39.642;22.430;2023-04-29T11:52:34;22.38;44.62
65478;SHT31;53678;39.642;22.430;2023-04-29T11:55:02;22.65;44.33
65478;SHT31;53678;39.642;22.430;2023-04-29T11:57:28;22.69;44.36
65478;SHT31;53678;39.642;22.430;2023-04-29T11:59:54;22.38;45.03
65478;SHT31;53678;39.642;22.430;2023-04-29T12:02:30;22.73;44.30
65478;SHT31;53678;39.642;22.430;2023-04-29T12:04:57;22.87;43.64
65478;SHT31;53678;39.642;22.430;2023-04-29T12:07:25;22.80;43.61
65478;SHT31;53678;39.642;22.430;2023-04-29T12:09:51;23.04;43.10
65478;SHT31;53678;39.642;22.430;2023-04-29T12:12:17;22.68;42.73
65478;SHT31;53678;39.642;22.430;2023-04-29T12:14:44;22.18;42.80
65478;SHT31;53678;39.642;22.430;2023-04-29T12:17:10;22.12;43.05
65478;SHT31;53678;39.642;22.430;2023-04-29T12:19:38;22.35;42.42
65478;SHT31;53678;39.642;22.430;2023-04-29T12:22:04;22.24;43.05
65478;SHT31;53678;39.642;22.430;2023-04-29T12:24:38;22.53;42.76
65478;SHT31;53678;39.642;22.430;2023-04-29T12:27:07;22.52;41.41
65478;SHT31;53678;39.642;22.430;2023-04-29T12:29:37;22.79;40.47
65478;SHT31;53678;39.642;22.430;2023-04-29T12:32:03;22.68;42.06
65478;SHT31;53678;39.642;22.430;2023-04-29T12:34:32;22.52;42.23
65478;SHT31;53678;39.642;22.430;2023-04-29T12:36:58;22.11;42.82
65478;SHT31;53678;39.642;22.430;2023-04-29T12:39:25;22.48;42.52
65478;SHT31;53678;39.642;22.430;2023-04-29T12:41:59;22.63;42.89
65478;SHT31;53678;39.642;22.430;2023-04-29T12:44:34;22.44;43.08
65478;SHT31;53678;39.642;22.430;2023-04-29T12:47:07;22.45;43.09
65478;SHT31;53678;39.642;22.430;2023-04-29T12:49:33;22.73;42.50
65478;SHT31;53678;39.642;22.430;2023-04-29T12:51:59;22.68;45.23
65478;SHT31;53678;39.642;22.430;2023-04-29T12:54:26;22.22;47.15
65478;SHT31;53678;39.642;22.430;2023-04-29T12:56:55;21.81;49.60
65478;SHT31;53678;39.642;22.430;2023-04-29T12:59:21;21.62;49.38
65478;SHT31;53678;39.642;22.430;2023-04-29T13:01:46;21.74;50.18
65478;SHT31;53678;39.642;22.430;2023-04-29T13:04:14;21.46;50.04
65478;SHT31;53678;39.642;22.430;2023-04-29T13:06:39;21.57;50.36
65478;SHT31;53678;39.642;22.430;2023-04-29T13:09:07;21.49;50.60
65478;SHT31;53678;39.642;22.430;2023-04-29T13:11:38;21.36;50.56
65478;SHT31;53678;39.642;22.430;2023-04-29T13:14:04;21.21;50.11
65478;SHT31;53678;39.642;22.430;2023-04-29T13:16:34;21.04;50.76
65478;SHT31;53678;39.642;22.430;2023-04-29T13:19:00;21.29;50.45
65478;SHT31;53678;39.642;22.430;2023-04-29T13:21:27;21.26;50.92
65478;SHT31;53678;39.642;22.430;2023-04-29T13:23:54;21.08;50.03
65478;SHT31;53678;39.642;22.430;2023-04-29T13:26:20;21.15;50.43
65478;SHT31;53678;39.642;22.430;2023-04-29T13:28:46;21.09;50.63
65478;SHT31;53678;39.642;22.430;2023-04-29T13:31:12;21.31;51.01
65478;SHT31;53678;39.642;22.430;2023-04-29T13:33:37;21.04;49.54
65478;SHT31;53678;39.642;22.430;2023-04-29T13:36:04;20.90;52.22
65478;SHT31;53678;39.642;22.430;2023-04-29T13:38:30;20.58;52.38
65478;SHT31;53678;39.642;22.430;2023-04-29T13:40:58;20.75;52.71
65478;SHT31;53678;39.642;22.430;2023-04-29T13:43:23;20.55;53.16
65478;SHT31;53678;39.642;22.430;2023-04-29T13:45:52;20.16;53.02
65478;SHT31;53678;39.642;22.430;2023-04-29T13:48:21;20.10;53.31
65478;SHT31;53678;39.642;22.430;2023-04-29T13:50:48;20.25;53.01
65478;SHT31;53678;39.642;22.430;2023-04-29T13:53:14;20.22;52.61
65478;SHT31;53678;39.642;22.430;2023-04-29T13:55:41;20.20;54.22
65478;SHT31;53678;39.642;22.430;2023-04-29T13:58:08;20.27;54.34
65478;SHT31;53678;39.642;22.430;2023-04-29T14:00:34;19.99;55.35
65478;SHT31;53678;39.642;22.430;2023-04-29T14:03:00;19.69;54.25
65478;SHT31;53678;39.642;22.430;2023-04-29T14:05:27;19.83;55.25
65478;SHT31;53678;39.642;22.430;2023-04-29T14:07:53;19.85;55.72
65478;SHT31;53678;39.642;22.430;2023-04-29T14:10:20;19.82;56.27
65478;SHT31;53678;39.642;22.430;2023-04-29T14:12:45;19.61;57.57
65478;SHT31;53678;39.642;22.430;2023-04-29T14:15:13;19.37;58.69
65478;SHT31;53678;39.642;22.430;2023-04-29T14:17:39;19.48;58.96
65478;SHT31;53678;39.642;22.430;2023-04-29T14:20:06;19.39;58.51
65478;SHT31;53678;39.642;22.430;2023-04-29T14:22:32;19.20;58.95
65478;SHT31;53678;39.642;22.430;2023-04-29T14:24:59;19.09;59.83
65478;SHT31;53678;39.642;22.430;2023-04-29T14:27:24;18.76;60.43
65478;SHT31;53678;39.642;22.430;2023-04-29T14:29:51;18.70;59.92
65478;SHT31;53678;39.642;22.430;2023-04-29T14:32:18;18.41;60.00
65478;SHT31;53678;39.642;22.430;2023-04-29T14:34:44;18.41;60.82
65478;SHT31;53678;39.642;22.430;2023-04-29T14:37:09;18.34;60.78
65478;SHT31;53678;39.642;22.430;2023-04-29T14:39:42;18.48;61.40
65478;SHT31;53678;39.642;22.430;2023-04-29T14:42:10;18.20;61.50
65478;SHT31;53678;39.642;22.430;2023-04-29T14:44:37;18.08;61.24
65478;SHT31;53678;39.642;22.430;2023-04-29T14:47:03;18.15;61.41
65478;SHT31;53678;39.642;22.430;2023-04-29T14:49:29;18.42;60.49
65478;SHT31;53678;39.642;22.430;2023-04-29T14:51:55;18.04;60.69
65478;SHT31;53678;39.642;22.430;2023-04-29T14:54:20;18.10;60.89
65478;SHT31;53678;39.642;22.430;2023-04-29T14:56:46;18.10;60.72
65478;SHT31;53678;39.642;22.430;2023-04-29T14:59:12;17.86;61.25
65478;SHT31;53678;39.642;22.430;2023-04-29T15:01:38;17.80;61.33
65478;SHT31;53678;39.642;22.430;2023-04-29T15:04:04;17.57;61.84
65478;SHT31;53678;39.642;22.430;2023-04-29T15:06:30;17.45;62.06
65478;SHT31;53678;39.642;22.430;2023-04-29T15:08:56;17.65;61.65
65478;SHT31;53678;39.642;22.430;2023-04-29T15:11:22;17.52;61.69
65478;SHT31;53678;39.642;22.430;2023-04-29T15:13:48;17.38;62.35
65478;SHT31;53678;39.642;22.430;2023-04-29T15:16:15;17.50;62.42
65478;SHT31;53678;39.642;22.430;2023-04-29T15:18:41;17.72;61.86
65478;SHT31;53678;39.642;22.430;2023-04-29T15:21:07;17.65;61.86
65478;SHT31;53678;39.642;22.430;2023-04-29T15:23:33;17.46;62.60
65478;SHT31;53678;39.642;22.430;2023-04-29T15:25:58;17.39;62.71
65478;SHT31;53678;39.642;22.430;2023-04-29T15:28:24;17.35;62.77
65478;SHT31;53678;39.642;22.430;2023-04-29T15:30:51;17.49;62.59
65478;SHT31;53678;39.642;22.430;2023-04-29T15:33:16;17.47;63.10
65478;SHT31;53678;39.642;22.430;2023-04-29T15:35:43;17.38;63.78
65478;SHT31;53678;39.642;22.430;2023-04-29T15:38:08;17.38;64.14
65478;SHT31;53678;39.642;22.430;2023-04-29T15:40:34;17.38;64.49
65478;SHT31;53678;39.642;22.430;2023-04-29T15:43:00;17.42;64.38
65478;SHT31;53678;39.642;22.430;2023-04-29T15:45:25;17.49;64.14
65478;SHT31;53678;39.642;22.430;2023-04-29T15:47:51;17.39;64.66
65478;SHT31;53678;39.642;22.430;2023-04-29T15:50:17;17.38;64.73
65478;SHT31;53678;39.642;22.430;2023-04-29T15:52:42;17.25;65.30